createdAt,value
2023-02-15T00:00:51.329Z,43.50
2023-02-15T00:03:14.692Z,44.78
2023-02-15T00:05:38.021Z,46.55
2023-02-15T00:08:01.312Z,43.50
2023-02-15T00:10:25.202Z,43.63
2023-02-15T00:12:48.512Z,44.78
2023-02-15T00:15:13.544Z,39.78
2023-02-15T00:17:38.201Z,44.67
2023-02-15T00:20:01.449Z,42.03
2023-02-15T00:22:24.724Z,38.47
2023-02-15T00:24:48.219Z,43.40
2023-02-15T00:27:11.494Z,40.08
2023-02-15T00:29:36.052Z,41.13
2023-02-15T00:31:59.457Z,43.55
2023-02-15T00:34:26.759Z,41.67
2023-02-15T00:36:50.544Z,38.95
2023-02-15T00:39:14.687Z,44.47
2023-02-15T00:41:38.473Z,39.97
2023-02-15T00:44:02.206Z,42.75
2023-02-15T00:46:26.506Z,44.55
2023-02-15T00:48:49.855Z,41.00
2023-02-15T00:51:14.506Z,41.25
2023-02-15T00:53:37.803Z,45.63
2023-02-15T00:56:01.475Z,43.17
2023-02-15T00:58:25.310Z,42.33
2023-02-15T01:00:50.326Z,43.38
2023-02-15T01:03:15.959Z,42.80
2023-02-15T01:05:39.245Z,45.78
2023-02-15T01:08:04.538Z,41.53
2023-02-15T01:10:28.850Z,43.78
2023-02-15T01:12:52.778Z,46.30
2023-02-15T01:15:16.109Z,44.22
2023-02-15T01:17:39.450Z,45.92
2023-02-15T01:20:02.941Z,43.45
2023-02-15T01:22:26.204Z,44.85
2023-02-15T01:24:52.976Z,46.10
2023-02-15T01:27:16.245Z,45.83
2023-02-15T01:29:40.346Z,50.22
2023-02-15T01:32:03.918Z,45.75
2023-02-15T01:34:27.225Z,44.58
2023-02-15T01:36:50.529Z,45.70
2023-02-15T01:39:13.768Z,45.47
2023-02-15T01:41:38.328Z,42.47
2023-02-15T01:44:04.002Z,42.08
2023-02-15T01:46:33.337Z,44.88
2023-02-15T01:49:02.460Z,43.28
2023-02-15T01:51:29.933Z,43.85
2023-02-15T01:54:00.653Z,46.17
2023-02-15T01:56:27.278Z,44.30
2023-02-15T01:58:53.568Z,43.75
2023-02-15T02:01:17.065Z,42.22
2023-02-15T02:03:55.345Z,46.35
2023-02-15T02:06:19.788Z,42.13
2023-02-15T02:08:44.486Z,44.20
2023-02-15T02:11:12.951Z,46.70
2023-02-15T02:13:36.248Z,45.65
2023-02-15T02:16:11.674Z,48.50
2023-02-15T02:18:49.701Z,50.38
2023-02-15T02:21:54.270Z,45.00
2023-02-15T02:24:55.473Z,47.03
2023-02-15T02:27:38.592Z,45.90
2023-02-15T02:30:37.817Z,42.30
2023-02-15T02:33:34.271Z,48.38
2023-02-15T02:36:10.619Z,46.67
2023-02-15T02:38:55.554Z,44.53
2023-02-15T02:41:26.677Z,46.35
2023-02-15T02:43:56.492Z,46.00
2023-02-15T02:46:24.551Z,42.13
2023-02-15T02:48:51.277Z,45.00
2023-02-15T02:51:15.064Z,50.05
2023-02-15T02:53:39.558Z,49.10
2023-02-15T02:56:20.295Z,48.30
2023-02-15T02:58:49.631Z,45.90
2023-02-15T03:01:18.922Z,45.03
2023-02-15T03:03:46.387Z,43.22
2023-02-15T03:06:18.866Z,48.35
2023-02-15T03:08:45.246Z,45.78
2023-02-15T03:11:10.077Z,44.30
2023-02-15T03:13:35.166Z,44.65
2023-02-15T03:16:17.602Z,48.10
2023-02-15T03:18:45.576Z,48.53
2023-02-15T03:21:22.893Z,45.63
2023-02-15T03:23:46.412Z,47.97
2023-02-15T03:26:12.103Z,48.00
2023-02-15T03:28:41.042Z,47.23
2023-02-15T03:31:07.191Z,48.35
2023-02-15T03:33:31.663Z,50.40
2023-02-15T03:36:02.835Z,51.70
2023-02-15T03:38:36.186Z,48.92
2023-02-15T03:41:13.876Z,48.28
2023-02-15T03:43:46.816Z,46.77
2023-02-15T03:46:16.185Z,47.45
2023-02-15T03:48:44.548Z,43.70
2023-02-15T03:51:29.973Z,45.95
2023-02-15T03:53:56.561Z,45.35
2023-02-15T03:56:19.885Z,47.10
2023-02-15T03:59:00.780Z,48.85
2023-02-15T04:01:47.415Z,45.93
2023-02-15T04:04:19.202Z,49.03
2023-02-15T04:06:42.474Z,46.67
2023-02-15T04:09:21.022Z,49.05
2023-02-15T04:11:44.294Z,50.47
2023-02-15T04:14:27.581Z,47.10
2023-02-15T04:16:50.774Z,46.70
2023-02-15T04:19:31.656Z,46.28
2023-02-15T04:22:12.274Z,47.75
2023-02-15T04:24:54.337Z,45.50
2023-02-15T04:27:18.207Z,45.72
2023-02-15T04:29:41.457Z,43.85
2023-02-15T04:32:04.884Z,45.65
2023-02-15T04:34:28.407Z,44.73
2023-02-15T04:36:51.808Z,44.53
2023-02-15T04:39:16.445Z,48.65
2023-02-15T04:41:41.120Z,45.40
2023-02-15T04:44:04.705Z,43.97
2023-02-15T04:46:28.252Z,45.75
2023-02-15T04:48:51.574Z,44.72
2023-02-15T04:51:14.923Z,49.03
2023-02-15T04:53:38.274Z,45.25
2023-02-15T04:56:02.508Z,45.55
2023-02-15T04:58:27.708Z,50.03
2023-02-15T05:00:51.143Z,46.27
2023-02-15T05:03:14.561Z,50.80
2023-02-15T05:05:38.194Z,43.35
2023-02-15T05:08:01.462Z,46.03
2023-02-15T05:10:24.819Z,45.10
2023-02-15T05:12:48.208Z,45.13
2023-02-15T05:15:13.113Z,45.17
2023-02-15T05:17:36.488Z,45.87
2023-02-15T05:19:59.811Z,46.45
2023-02-15T05:22:23.054Z,47.40
2023-02-15T05:25:03.635Z,44.83
2023-02-15T05:27:44.504Z,44.63
2023-02-15T05:30:12.710Z,43.83
2023-02-15T05:32:37.565Z,41.92
2023-02-15T05:35:01.005Z,43.00
2023-02-15T05:37:24.670Z,46.25
2023-02-15T05:39:47.873Z,46.83
2023-02-15T05:42:11.165Z,45.45
2023-02-15T05:44:34.533Z,49.17
2023-02-15T05:46:58.105Z,45.53
2023-02-15T05:49:22.989Z,47.00
2023-02-15T05:51:46.275Z,49.50
2023-02-15T05:54:09.562Z,47.33
2023-02-15T05:56:32.973Z,48.42
2023-02-15T05:58:56.405Z,49.40
2023-02-15T06:01:23.077Z,47.13
2023-02-15T06:03:47.523Z,49.13
2023-02-15T06:06:12.788Z,46.13
2023-02-15T06:08:38.160Z,45.85
2023-02-15T06:11:01.682Z,43.97
2023-02-15T06:13:25.033Z,43.95
2023-02-15T06:15:48.568Z,49.57
2023-02-15T06:18:11.908Z,49.05
2023-02-15T06:20:35.225Z,47.35
2023-02-15T06:22:59.979Z,49.53
2023-02-15T06:25:23.477Z,47.47
2023-02-15T06:27:46.801Z,43.80
2023-02-15T06:30:12.346Z,48.20
2023-02-15T06:32:35.649Z,46.17
2023-02-15T06:34:59.125Z,46.93
2023-02-15T06:37:22.423Z,49.03
2023-02-15T06:39:47.187Z,49.47
2023-02-15T06:42:10.509Z,49.80
2023-02-15T06:44:33.805Z,47.80
2023-02-15T06:46:57.118Z,48.97
2023-02-15T06:49:20.540Z,48.57
2023-02-15T06:51:43.925Z,45.17
2023-02-15T06:54:07.508Z,43.30
2023-02-15T06:56:32.285Z,41.27
2023-02-15T06:58:55.568Z,50.20
2023-02-15T07:01:19.079Z,42.63
2023-02-15T07:03:42.385Z,47.57
2023-02-15T07:06:09.201Z,40.37
2023-02-15T07:08:32.648Z,43.73
2023-02-15T07:11:17.459Z,42.30
2023-02-15T07:13:43.574Z,43.67
2023-02-15T07:16:06.993Z,46.33
2023-02-15T07:18:30.273Z,42.80
2023-02-15T07:20:53.551Z,42.83
2023-02-15T07:23:16.933Z,42.30
2023-02-15T07:25:40.662Z,40.77
2023-02-15T07:28:05.637Z,43.93
2023-02-15T07:30:32.014Z,41.13
2023-02-15T07:33:29.615Z,39.17
2023-02-15T07:35:55.122Z,38.20
2023-02-15T07:38:18.602Z,38.87
2023-02-15T07:40:41.903Z,39.23
2023-02-15T07:43:05.118Z,40.57
2023-02-15T07:45:30.166Z,35.83
2023-02-15T07:47:53.481Z,37.50
2023-02-15T07:50:17.585Z,46.93
2023-02-15T07:52:40.946Z,38.23
2023-02-15T07:55:04.922Z,36.67
2023-02-15T07:57:28.222Z,38.00
2023-02-15T07:59:52.245Z,38.63
2023-02-15T08:02:18.487Z,38.27
2023-02-15T08:04:42.003Z,39.47
2023-02-15T08:07:05.312Z,39.67
2023-02-15T08:09:29.300Z,38.67
2023-02-15T08:11:52.615Z,41.33
2023-02-15T08:14:18.677Z,40.70
2023-02-15T08:16:44.286Z,38.27
2023-02-15T08:19:12.473Z,37.55
2023-02-15T08:21:37.704Z,35.80
2023-02-15T08:24:01.649Z,35.20
2023-02-15T08:26:26.470Z,39.70
2023-02-15T08:28:51.136Z,40.00
2023-02-15T08:31:16.010Z,35.80
2023-02-15T08:33:41.854Z,41.25
2023-02-15T08:36:09.632Z,36.47
2023-02-15T08:38:33.645Z,37.40
2023-02-15T08:40:57.054Z,36.90
2023-02-15T08:43:20.292Z,43.20
2023-02-15T08:45:44.020Z,36.42
2023-02-15T08:48:07.479Z,38.05
2023-02-15T08:50:30.671Z,40.33
2023-02-15T08:52:55.227Z,36.10
2023-02-15T08:55:18.635Z,36.83
2023-02-15T08:57:45.847Z,37.83
2023-02-15T09:00:11.158Z,35.25
2023-02-15T09:02:34.473Z,35.15
2023-02-15T09:04:57.811Z,35.25
2023-02-15T09:07:21.182Z,33.97
2023-02-15T09:09:46.587Z,36.25
2023-02-15T09:12:09.847Z,30.25
2023-02-15T09:14:33.153Z,34.35
2023-02-15T09:16:56.889Z,32.60
2023-02-15T09:19:23.369Z,32.05
2023-02-15T09:21:46.666Z,29.20
2023-02-15T09:24:13.865Z,32.80
2023-02-15T09:26:42.829Z,33.05
2023-02-15T09:29:06.323Z,28.23
2023-02-15T09:31:32.147Z,30.80
2023-02-15T09:33:56.440Z,40.00
2023-02-15T09:36:22.503Z,31.38
2023-02-15T09:38:46.413Z,29.00
2023-02-15T09:41:35.650Z,30.98
2023-02-15T09:44:16.364Z,32.90
2023-02-15T09:47:17.341Z,34.88
2023-02-15T09:49:49.868Z,31.38
2023-02-15T09:52:42.439Z,29.60
2023-02-15T09:55:27.549Z,34.65
2023-02-15T09:58:00.874Z,36.67
2023-02-15T10:00:37.891Z,33.33
2023-02-15T10:03:36.386Z,34.22
2023-02-15T10:06:20.804Z,32.00
2023-02-15T10:09:11.458Z,27.92
2023-02-15T10:11:53.579Z,35.50
2023-02-15T10:14:51.714Z,34.20
2023-02-15T10:17:35.614Z,28.58
2023-02-15T10:20:14.214Z,27.83
2023-02-15T10:22:52.413Z,32.47
2023-02-15T10:25:31.738Z,31.33
2023-02-15T10:27:55.524Z,34.10
2023-02-15T10:30:23.696Z,30.70
2023-02-15T10:33:01.222Z,28.30
2023-02-15T10:35:33.540Z,31.17
2023-02-15T10:38:10.842Z,34.83
2023-02-15T10:40:43.762Z,30.95
2023-02-15T10:43:22.472Z,29.13
2023-02-15T10:45:58.833Z,29.17
2023-02-15T10:48:52.572Z,31.83
2023-02-15T10:51:26.667Z,30.13
2023-02-15T10:54:11.474Z,33.40
2023-02-15T10:56:41.537Z,29.90
2023-02-15T10:59:28.941Z,28.45
2023-02-15T11:02:00.455Z,29.52
2023-02-15T11:04:56.328Z,31.00
2023-02-15T11:07:26.281Z,30.00
2023-02-15T11:09:54.361Z,28.20
2023-02-15T11:12:22.413Z,30.88
2023-02-15T11:14:55.065Z,30.02
2023-02-15T11:17:23.680Z,29.73
2023-02-15T11:19:57.404Z,32.63
2023-02-15T11:22:21.198Z,30.38
2023-02-15T11:24:48.148Z,32.20
2023-02-15T11:27:22.937Z,27.27
2023-02-15T11:29:59.629Z,28.02
2023-02-15T11:32:26.397Z,28.90
2023-02-15T11:34:57.385Z,28.45
2023-02-15T11:37:25.944Z,29.48
2023-02-15T11:39:55.736Z,30.58
2023-02-15T11:42:23.896Z,26.90
2023-02-15T11:44:58.810Z,24.90
2023-02-15T11:47:22.065Z,31.77
2023-02-15T11:49:48.233Z,30.45
2023-02-15T11:52:17.158Z,32.83
2023-02-15T11:54:45.034Z,28.33
2023-02-15T11:57:16.831Z,25.88
2023-02-15T11:59:43.417Z,30.83
2023-02-15T12:02:19.249Z,26.33
2023-02-15T12:04:49.848Z,24.50
2023-02-15T12:07:22.767Z,28.33
2023-02-15T12:09:52.992Z,25.77
2023-02-15T12:12:26.000Z,27.45
2023-02-15T12:14:51.406Z,27.10
2023-02-15T12:17:16.322Z,24.80
2023-02-15T12:19:42.582Z,30.52
2023-02-15T12:22:10.186Z,25.35
2023-02-15T12:24:40.625Z,27.50
2023-02-15T12:27:07.178Z,23.92
2023-02-15T12:29:33.743Z,25.13
2023-02-15T12:31:57.539Z,26.10
2023-02-15T12:34:25.266Z,26.02
2023-02-15T12:36:51.718Z,27.48
2023-02-15T12:39:26.593Z,27.77
2023-02-15T12:42:03.409Z,28.30
2023-02-15T12:44:29.871Z,25.45
2023-02-15T12:47:00.851Z,27.05
2023-02-15T12:49:24.166Z,24.17
2023-02-15T12:51:51.106Z,25.23
2023-02-15T12:54:41.107Z,26.45
2023-02-15T12:57:27.727Z,27.38
2023-02-15T12:59:53.281Z,25.92
2023-02-15T13:02:24.820Z,26.90
2023-02-15T13:04:51.823Z,23.73
2023-02-15T13:07:15.835Z,23.92
2023-02-15T13:09:40.825Z,27.45
2023-02-15T13:12:20.458Z,24.10
2023-02-15T13:14:47.695Z,25.42
2023-02-15T13:17:13.664Z,27.27
2023-02-15T13:19:42.642Z,25.02
2023-02-15T13:22:14.019Z,25.13
2023-02-15T13:24:41.774Z,25.60
2023-02-15T13:27:14.990Z,26.92
2023-02-15T13:29:40.725Z,22.92
2023-02-15T13:32:14.490Z,24.10
2023-02-15T13:34:41.320Z,25.25
2023-02-15T13:37:16.123Z,28.50
2023-02-15T13:39:45.344Z,26.55
2023-02-15T13:42:22.983Z,21.55
2023-02-15T13:45:26.004Z,23.83
2023-02-15T13:47:57.778Z,24.25
2023-02-15T13:50:48.887Z,26.00
2023-02-15T13:53:31.208Z,23.30
2023-02-15T13:55:57.789Z,22.27
2023-02-15T13:58:55.076Z,25.67
2023-02-15T14:01:28.654Z,25.15
2023-02-15T14:04:30.512Z,26.50
2023-02-15T14:07:13.134Z,24.55
2023-02-15T14:09:48.593Z,25.90
2023-02-15T14:12:31.790Z,24.70
2023-02-15T14:15:20.367Z,28.23
2023-02-15T14:18:00.657Z,24.50
2023-02-15T14:20:38.840Z,27.75
2023-02-15T14:23:16.383Z,24.10
2023-02-15T14:25:49.486Z,26.40
2023-02-15T14:28:18.501Z,27.67
2023-02-15T14:30:47.236Z,28.05
2023-02-15T14:33:34.386Z,23.23
2023-02-15T14:35:59.957Z,22.73
2023-02-15T14:38:39.622Z,29.45
2023-02-15T14:41:09.306Z,24.42
2023-02-15T14:43:47.447Z,28.35
2023-02-15T14:46:21.394Z,28.23
2023-02-15T14:48:50.183Z,26.65
2023-02-15T14:52:12.968Z,22.77
2023-02-15T14:54:59.877Z,24.88
2023-02-15T14:57:36.345Z,24.88
2023-02-15T15:00:07.773Z,24.05
2023-02-15T15:02:48.377Z,26.00
2023-02-15T15:05:21.438Z,25.60
2023-02-15T15:07:48.248Z,26.30
2023-02-15T15:10:39.086Z,24.23
2023-02-15T15:13:42.370Z,27.58
2023-02-15T15:16:53.461Z,29.23
2023-02-15T15:20:14.462Z,25.27
2023-02-15T15:22:38.661Z,27.38
2023-02-15T15:25:03.392Z,25.58
2023-02-15T15:27:46.102Z,25.40
2023-02-15T15:30:52.125Z,25.00
2023-02-15T15:33:45.666Z,23.27
2023-02-15T15:36:50.158Z,25.83
2023-02-15T15:39:40.416Z,24.95
2023-02-15T15:42:14.673Z,26.75
2023-02-15T15:45:36.308Z,22.98
2023-02-15T15:48:29.718Z,20.42
2023-02-15T15:50:56.038Z,25.27
2023-02-15T15:53:25.124Z,24.60
2023-02-15T15:55:52.536Z,24.15
2023-02-15T15:58:19.362Z,22.30
2023-02-15T16:00:46.639Z,27.40
2023-02-15T16:03:18.154Z,23.52
2023-02-15T16:05:42.595Z,22.50
2023-02-15T16:08:07.272Z,23.25
2023-02-15T16:10:33.594Z,22.40
2023-02-15T16:12:57.785Z,23.55
2023-02-15T16:15:26.176Z,29.77
2023-02-15T16:17:54.911Z,29.23
2023-02-15T16:20:28.263Z,25.67
2023-02-15T16:23:02.925Z,25.73
2023-02-15T16:25:39.607Z,24.33
2023-02-15T16:28:09.994Z,23.92
2023-02-15T16:30:35.517Z,23.95
2023-02-15T16:33:09.011Z,21.20
2023-02-15T16:35:34.552Z,25.70
2023-02-15T16:37:57.780Z,23.58
2023-02-15T16:40:53.583Z,27.52
2023-02-15T16:43:23.576Z,24.48
2023-02-15T16:45:46.980Z,25.10
2023-02-15T16:48:19.662Z,23.75
2023-02-15T16:50:52.111Z,21.90
2023-02-15T16:53:20.612Z,21.60
2023-02-15T16:55:44.930Z,20.38
2023-02-15T16:58:14.493Z,29.50
2023-02-15T17:00:41.354Z,23.95
2023-02-15T17:03:09.881Z,26.90
2023-02-15T17:05:44.692Z,23.88
2023-02-15T17:08:17.652Z,24.45
2023-02-15T17:10:44.090Z,23.92
2023-02-15T17:13:13.512Z,23.52
2023-02-15T17:15:38.820Z,23.42
2023-02-15T17:18:06.756Z,23.38
2023-02-15T17:20:33.378Z,23.33
2023-02-15T17:22:59.370Z,26.23
2023-02-15T17:25:34.943Z,21.58
2023-02-15T17:27:58.944Z,25.50
2023-02-15T17:30:30.427Z,25.92
2023-02-15T17:33:00.271Z,19.50
2023-02-15T17:35:26.660Z,24.92
2023-02-15T17:37:51.330Z,23.13
2023-02-15T17:40:25.557Z,21.92
2023-02-15T17:42:49.015Z,22.02
2023-02-15T17:45:14.613Z,29.80
2023-02-15T17:47:38.803Z,21.23
2023-02-15T17:50:05.119Z,24.60
2023-02-15T17:52:30.551Z,26.00
2023-02-15T17:55:11.269Z,23.73
2023-02-15T17:57:36.434Z,24.75
2023-02-15T18:00:17.357Z,29.13
2023-02-15T18:02:58.727Z,21.65
2023-02-15T18:05:40.317Z,25.50
2023-02-15T18:08:21.256Z,22.85
2023-02-15T18:11:02.376Z,23.05
2023-02-15T18:13:27.397Z,24.15
2023-02-15T18:15:50.692Z,20.98
2023-02-15T18:18:14.786Z,22.83
2023-02-15T18:20:38.245Z,20.95
2023-02-15T18:23:02.149Z,25.10
2023-02-15T18:25:25.900Z,25.13
2023-02-15T18:27:49.253Z,22.90
2023-02-15T18:30:18.663Z,25.35
2023-02-15T18:32:42.291Z,29.55
2023-02-15T18:35:06.747Z,24.30
2023-02-15T18:37:33.814Z,23.60
2023-02-15T18:39:57.366Z,22.80
2023-02-15T18:42:24.379Z,22.77
2023-02-15T18:44:47.719Z,22.60
2023-02-15T18:47:12.595Z,23.30
2023-02-15T18:49:36.015Z,21.10
2023-02-15T18:51:59.333Z,21.17
2023-02-15T18:54:26.105Z,26.95
2023-02-15T18:56:56.324Z,23.65
2023-02-15T18:59:20.090Z,28.13
2023-02-15T19:01:43.526Z,23.55
2023-02-15T19:04:08.301Z,25.08
2023-02-15T19:06:31.582Z,23.40
2023-02-15T19:08:54.997Z,21.17
2023-02-15T19:11:22.992Z,25.25
2023-02-15T19:13:48.759Z,22.95
2023-02-15T19:16:28.215Z,22.50
2023-02-15T19:18:51.907Z,24.20
2023-02-15T19:21:18.757Z,22.42
2023-02-15T19:23:42.117Z,24.27
2023-02-15T19:26:06.062Z,23.67
2023-02-15T19:28:33.653Z,26.95
2023-02-15T19:30:57.144Z,23.02
2023-02-15T19:33:23.695Z,24.95
2023-02-15T19:35:52.412Z,27.98
2023-02-15T19:38:21.522Z,24.50
2023-02-15T19:40:46.022Z,23.17
2023-02-15T19:43:16.636Z,22.33
2023-02-15T19:45:40.093Z,26.95
2023-02-15T19:48:03.560Z,23.10
2023-02-15T19:50:31.686Z,26.60
2023-02-15T19:52:55.270Z,23.65
2023-02-15T19:55:25.232Z,28.05
2023-02-15T19:57:48.538Z,23.83
2023-02-15T20:00:22.229Z,26.38
2023-02-15T20:02:46.575Z,27.80
2023-02-15T20:05:09.928Z,29.02
2023-02-15T20:07:33.319Z,30.25
2023-02-15T20:09:56.830Z,23.02
2023-02-15T20:12:25.523Z,25.45
2023-02-15T20:14:48.916Z,25.42
2023-02-15T20:17:13.211Z,23.83
2023-02-15T20:19:38.916Z,28.25
2023-02-15T20:22:02.893Z,23.25
2023-02-15T20:24:28.904Z,23.20
2023-02-15T20:26:52.385Z,27.40
2023-02-15T20:29:19.737Z,24.95
2023-02-15T20:31:43.793Z,23.00
2023-02-15T20:34:07.274Z,24.70
2023-02-15T20:36:30.836Z,25.55
2023-02-15T20:38:56.271Z,23.52
2023-02-15T20:41:37.480Z,26.77
2023-02-15T20:44:01.202Z,25.00
2023-02-15T20:46:26.100Z,28.42
2023-02-15T20:48:49.641Z,28.58
2023-02-15T20:51:18.507Z,24.23
2023-02-15T20:53:41.870Z,27.33
2023-02-15T20:56:05.703Z,25.30
2023-02-15T20:58:31.633Z,25.65
2023-02-15T21:00:57.228Z,26.17
2023-02-15T21:03:26.411Z,28.58
2023-02-15T21:05:50.610Z,25.55
2023-02-15T21:08:16.026Z,31.40
2023-02-15T21:10:39.887Z,25.08
2023-02-15T21:13:04.526Z,27.23
2023-02-15T21:15:32.577Z,23.17
2023-02-15T21:17:57.147Z,27.98
2023-02-15T21:20:22.481Z,24.38
2023-02-15T21:22:46.032Z,24.35
2023-02-15T21:25:16.511Z,26.17
2023-02-15T21:27:39.812Z,24.00
2023-02-15T21:30:05.300Z,25.58
2023-02-15T21:32:28.930Z,26.40
2023-02-15T21:34:52.265Z,28.08
2023-02-15T21:37:31.574Z,31.52
2023-02-15T21:39:54.919Z,24.38
2023-02-15T21:42:35.645Z,24.15
2023-02-15T21:45:16.573Z,27.00
2023-02-15T21:47:53.725Z,25.73
2023-02-15T21:50:37.409Z,23.10
2023-02-15T21:53:02.271Z,29.27
2023-02-15T21:55:25.815Z,27.25
2023-02-15T21:57:49.222Z,26.77
2023-02-15T22:00:17.621Z,25.95
2023-02-15T22:02:44.233Z,26.40
2023-02-15T22:05:14.594Z,30.13
2023-02-15T22:07:38.863Z,26.75
2023-02-15T22:10:03.631Z,25.67
2023-02-15T22:12:27.121Z,28.35
2023-02-15T22:14:54.571Z,29.05
2023-02-15T22:17:21.391Z,26.27
2023-02-15T22:19:46.687Z,24.98
2023-02-15T22:22:10.444Z,30.98
2023-02-15T22:24:33.945Z,23.75
2023-02-15T22:26:58.625Z,24.80
2023-02-15T22:29:22.198Z,26.48
2023-02-15T22:31:46.036Z,34.30
2023-02-15T22:34:26.053Z,28.02
2023-02-15T22:36:49.823Z,29.02
2023-02-15T22:39:13.298Z,32.28
2023-02-15T22:41:36.617Z,27.38
2023-02-15T22:44:01.397Z,28.77
2023-02-15T22:46:26.536Z,26.48
2023-02-15T22:48:50.466Z,33.17
2023-02-15T22:51:15.289Z,30.25
2023-02-15T22:53:39.020Z,28.17
2023-02-15T22:56:09.659Z,34.78
2023-02-15T22:58:33.265Z,27.05
2023-02-15T23:00:59.951Z,27.50
2023-02-15T23:03:26.525Z,31.67
2023-02-15T23:05:49.904Z,25.50
2023-02-15T23:08:14.035Z,27.83
2023-02-15T23:10:37.574Z,30.05
2023-02-15T23:13:19.745Z,29.92
2023-02-15T23:15:45.618Z,32.53
2023-02-15T23:18:19.321Z,30.85
2023-02-15T23:20:42.629Z,33.67
2023-02-15T23:23:06.088Z,30.38
2023-02-15T23:25:29.621Z,29.50
2023-02-15T23:27:58.831Z,28.05
2023-02-15T23:30:22.513Z,30.80
2023-02-15T23:32:45.847Z,28.67
2023-02-15T23:35:15.744Z,31.60
2023-02-15T23:37:39.002Z,27.77
2023-02-15T23:40:20.153Z,30.60
2023-02-15T23:42:44.617Z,29.20
2023-02-15T23:45:22.701Z,29.15
2023-02-15T23:48:05.227Z,30.83
2023-02-15T23:50:31.483Z,33.10
2023-02-15T23:52:56.306Z,30.58
2023-02-15T23:55:20.997Z,31.05
2023-02-15T23:57:45.567Z,35.47
